sensor_id;sensor_type;location;lat;lon;timestamp;P1;durP1;ratioP1;P2;durP2;ratioP2
19575;SDS011;41589;51.196;7.074;2023-02-15T00:00:50;3.20;;;3.10;;
19575;SDS011;41589;51.196;7.074;2023-02-15T00:05:51;3.07;;;2.97;;
19575;SDS011;41589;51.196;7.074;2023-02-15T00:11:07;2.80;;;2.70;;
19575;SDS011;41589;51.196;7.074;2023-02-15T00:16:12;2.80;;;2.70;;
19575;SDS011;41589;51.196;7.074;2023-02-15T00:21:13;3.40;;;3.20;;
19575;SDS011;41589;51.196;7.074;2023-02-15T00:26:13;3.13;;;2.97;;
19575;SDS011;41589;51.196;7.074;2023-02-15T00:31:22;3.13;;;3.03;;
19575;SDS011;41589;51.196;7.074;2023-02-15T00:36:26;3.03;;;2.93;;
19575;SDS011;41589;51.196;7.074;2023-02-15T00:41:26;2.87;;;2.77;;
19575;SDS011;41589;51.196;7.074;2023-02-15T00:46:27;2.93;;;2.83;;
19575;SDS011;41589;51.196;7.074;2023-02-15T00:51:27;2.70;;;2.60;;
19575;SDS011;41589;51.196;7.074;2023-02-15T00:56:28;3.03;;;2.93;;
19575;SDS011;41589;51.196;7.074;2023-02-15T01:01:28;2.90;;;2.80;;
19575;SDS011;41589;51.196;7.074;2023-02-15T01:06:29;3.20;;;3.00;;
19575;SDS011;41589;51.196;7.074;2023-02-15T01:11:29;3.10;;;3.00;;
19575;SDS011;41589;51.196;7.074;2023-02-15T01:16:38;3.00;;;2.90;;
19575;SDS011;41589;51.196;7.074;2023-02-15T01:21:39;3.20;;;3.10;;
19575;SDS011;41589;51.196;7.074;2023-02-15T01:26:47;3.03;;;2.93;;
19575;SDS011;41589;51.196;7.074;2023-02-15T01:31:53;3.10;;;3.00;;
19575;SDS011;41589;51.196;7.074;2023-02-15T01:36:53;2.80;;;2.70;;
19575;SDS011;41589;51.196;7.074;2023-02-15T01:41:57;3.20;;;3.10;;
19575;SDS011;41589;51.196;7.074;2023-02-15T01:46:57;3.10;;;3.00;;
19575;SDS011;41589;51.196;7.074;2023-02-15T01:51:58;3.17;;;3.07;;
19575;SDS011;41589;51.196;7.074;2023-02-15T01:57:04;3.30;;;3.20;;
19575;SDS011;41589;51.196;7.074;2023-02-15T02:02:26;2.87;;;2.77;;
19575;SDS011;41589;51.196;7.074;2023-02-15T02:07:28;2.90;;;2.80;;
19575;SDS011;41589;51.196;7.074;2023-02-15T02:12:34;2.87;;;2.77;;
19575;SDS011;41589;51.196;7.074;2023-02-15T02:34:01;4.40;;;4.20;;
19575;SDS011;41589;51.196;7.074;2023-02-15T02:49:36;3.40;;;3.30;;
19575;SDS011;41589;51.196;7.074;2023-02-15T02:54:43;3.77;;;3.57;;
19575;SDS011;41589;51.196;7.074;2023-02-15T02:59:44;3.50;;;3.30;;
19575;SDS011;41589;51.196;7.074;2023-02-15T03:04:57;3.53;;;3.33;;
19575;SDS011;41589;51.196;7.074;2023-02-15T03:10:09;3.60;;;3.40;;
19575;SDS011;41589;51.196;7.074;2023-02-15T03:15:12;3.73;;;3.53;;
19575;SDS011;41589;51.196;7.074;2023-02-15T03:20:22;3.20;;;3.10;;
19575;SDS011;41589;51.196;7.074;2023-02-15T03:25:32;3.37;;;3.27;;
19575;SDS011;41589;51.196;7.074;2023-02-15T03:30:45;3.57;;;3.37;;
19575;SDS011;41589;51.196;7.074;2023-02-15T03:36:11;3.30;;;3.20;;
19575;SDS011;41589;51.196;7.074;2023-02-15T03:41:27;3.17;;;3.07;;
19575;SDS011;41589;51.196;7.074;2023-02-15T03:46:39;3.33;;;3.13;;
19575;SDS011;41589;51.196;7.074;2023-02-15T03:51:46;3.50;;;3.30;;
19575;SDS011;41589;51.196;7.074;2023-02-15T03:56:55;3.43;;;3.30;;
19575;SDS011;41589;51.196;7.074;2023-02-15T04:02:28;3.60;;;3.40;;
19575;SDS011;41589;51.196;7.074;2023-02-15T04:07:38;3.17;;;3.03;;
19575;SDS011;41589;51.196;7.074;2023-02-15T04:12:39;3.10;;;3.00;;
19575;SDS011;41589;51.196;7.074;2023-02-15T04:17:39;3.20;;;3.10;;
19575;SDS011;41589;51.196;7.074;2023-02-15T04:22:42;3.30;;;3.10;;
19575;SDS011;41589;51.196;7.074;2023-02-15T04:28:04;3.27;;;3.17;;
19575;SDS011;41589;51.196;7.074;2023-02-15T04:33:12;3.10;;;3.00;;
19575;SDS011;41589;51.196;7.074;2023-02-15T04:38:13;3.10;;;3.00;;
19575;SDS011;41589;51.196;7.074;2023-02-15T04:43:13;3.67;;;3.47;;
19575;SDS011;41589;51.196;7.074;2023-02-15T04:48:13;3.47;;;3.30;;
19575;SDS011;41589;51.196;7.074;2023-02-15T04:53:14;3.40;;;3.20;;
19575;SDS011;41589;51.196;7.074;2023-02-15T04:58:16;3.30;;;3.20;;
19575;SDS011;41589;51.196;7.074;2023-02-15T05:03:16;3.30;;;3.20;;
19575;SDS011;41589;51.196;7.074;2023-02-15T05:08:17;3.37;;;3.17;;
19575;SDS011;41589;51.196;7.074;2023-02-15T05:13:18;3.00;;;2.90;;
19575;SDS011;41589;51.196;7.074;2023-02-15T05:18:19;3.40;;;3.20;;
19575;SDS011;41589;51.196;7.074;2023-02-15T05:23:21;3.10;;;3.00;;
19575;SDS011;41589;51.196;7.074;2023-02-15T05:28:22;3.13;;;3.03;;
19575;SDS011;41589;51.196;7.074;2023-02-15T05:33:25;3.10;;;3.00;;
19575;SDS011;41589;51.196;7.074;2023-02-15T05:38:25;3.07;;;2.97;;
19575;SDS011;41589;51.196;7.074;2023-02-15T05:43:26;3.37;;;3.27;;
19575;SDS011;41589;51.196;7.074;2023-02-15T05:48:28;3.40;;;3.20;;
19575;SDS011;41589;51.196;7.074;2023-02-15T05:53:29;2.83;;;2.73;;
19575;SDS011;41589;51.196;7.074;2023-02-15T05:58:32;3.30;;;3.20;;
19575;SDS011;41589;51.196;7.074;2023-02-15T06:03:34;3.07;;;2.97;;
19575;SDS011;41589;51.196;7.074;2023-02-15T06:08:35;3.30;;;3.10;;
19575;SDS011;41589;51.196;7.074;2023-02-15T06:13:37;3.30;;;3.10;;
19575;SDS011;41589;51.196;7.074;2023-02-15T06:18:37;3.20;;;3.10;;
19575;SDS011;41589;51.196;7.074;2023-02-15T06:23:37;2.97;;;2.87;;
19575;SDS011;41589;51.196;7.074;2023-02-15T06:28:38;2.70;;;2.60;;
19575;SDS011;41589;51.196;7.074;2023-02-15T06:33:38;3.13;;;3.03;;
19575;SDS011;41589;51.196;7.074;2023-02-15T06:38:39;3.40;;;3.20;;
19575;SDS011;41589;51.196;7.074;2023-02-15T06:43:40;3.40;;;3.30;;
19575;SDS011;41589;51.196;7.074;2023-02-15T06:48:40;3.20;;;3.10;;
19575;SDS011;41589;51.196;7.074;2023-02-15T06:53:41;3.20;;;3.10;;
19575;SDS011;41589;51.196;7.074;2023-02-15T06:58:42;2.60;;;2.50;;
19575;SDS011;41589;51.196;7.074;2023-02-15T07:03:45;3.00;;;2.90;;
19575;SDS011;41589;51.196;7.074;2023-02-15T07:08:46;2.67;;;2.57;;
19575;SDS011;41589;51.196;7.074;2023-02-15T07:13:47;2.87;;;2.77;;
19575;SDS011;41589;51.196;7.074;2023-02-15T07:18:47;3.17;;;2.97;;
19575;SDS011;41589;51.196;7.074;2023-02-15T07:23:48;2.80;;;2.70;;
19575;SDS011;41589;51.196;7.074;2023-02-15T07:28:48;3.07;;;2.97;;
19575;SDS011;41589;51.196;7.074;2023-02-15T07:33:49;2.93;;;2.83;;
19575;SDS011;41589;51.196;7.074;2023-02-15T07:38:49;2.80;;;2.70;;
19575;SDS011;41589;51.196;7.074;2023-02-15T07:43:50;2.67;;;2.57;;
19575;SDS011;41589;51.196;7.074;2023-02-15T07:48:50;2.63;;;2.53;;
19575;SDS011;41589;51.196;7.074;2023-02-15T07:53:51;2.90;;;2.80;;
19575;SDS011;41589;51.196;7.074;2023-02-15T07:58:51;2.90;;;2.80;;
19575;SDS011;41589;51.196;7.074;2023-02-15T08:03:52;2.70;;;2.60;;
19575;SDS011;41589;51.196;7.074;2023-02-15T08:08:53;2.60;;;2.50;;
19575;SDS011;41589;51.196;7.074;2023-02-15T08:13:57;2.60;;;2.50;;
19575;SDS011;41589;51.196;7.074;2023-02-15T08:19:05;2.43;;;2.33;;
19575;SDS011;41589;51.196;7.074;2023-02-15T08:24:06;2.23;;;2.13;;
19575;SDS011;41589;51.196;7.074;2023-02-15T08:29:08;2.50;;;2.40;;
19575;SDS011;41589;51.196;7.074;2023-02-15T08:34:09;2.43;;;2.33;;
19575;SDS011;41589;51.196;7.074;2023-02-15T08:39:12;2.30;;;2.20;;
19575;SDS011;41589;51.196;7.074;2023-02-15T08:44:13;2.60;;;2.50;;
19575;SDS011;41589;51.196;7.074;2023-02-15T08:49:16;2.23;;;2.13;;
19575;SDS011;41589;51.196;7.074;2023-02-15T08:54:21;2.43;;;2.33;;
19575;SDS011;41589;51.196;7.074;2023-02-15T08:59:22;2.30;;;2.20;;
19575;SDS011;41589;51.196;7.074;2023-02-15T09:04:23;2.50;;;2.40;;
19575;SDS011;41589;51.196;7.074;2023-02-15T09:09:23;2.07;;;1.97;;
19575;SDS011;41589;51.196;7.074;2023-02-15T09:14:24;2.30;;;2.20;;
19575;SDS011;41589;51.196;7.074;2023-02-15T09:19:26;2.00;;;1.90;;
19575;SDS011;41589;51.196;7.074;2023-02-15T09:24:26;2.03;;;1.93;;
19575;SDS011;41589;51.196;7.074;2023-02-15T09:29:27;2.30;;;2.20;;
19575;SDS011;41589;51.196;7.074;2023-02-15T09:34:27;2.03;;;1.93;;
19575;SDS011;41589;51.196;7.074;2023-02-15T09:39:27;2.00;;;1.90;;
19575;SDS011;41589;51.196;7.074;2023-02-15T09:44:32;2.20;;;2.10;;
19575;SDS011;41589;51.196;7.074;2023-02-15T09:54:52;2.20;;;2.10;;
19575;SDS011;41589;51.196;7.074;2023-02-15T10:11:25;1.80;;;1.80;;
19575;SDS011;41589;51.196;7.074;2023-02-15T10:27:20;1.70;;;1.70;;
19575;SDS011;41589;51.196;7.074;2023-02-15T10:32:22;1.93;;;1.83;;
19575;SDS011;41589;51.196;7.074;2023-02-15T10:37:29;2.00;;;1.90;;
19575;SDS011;41589;51.196;7.074;2023-02-15T10:42:49;1.63;;;1.63;;
19575;SDS011;41589;51.196;7.074;2023-02-15T11:09:03;2.00;;;1.90;;
19575;SDS011;41589;51.196;7.074;2023-02-15T11:19:41;2.00;;;1.90;;
19575;SDS011;41589;51.196;7.074;2023-02-15T11:24:52;1.90;;;1.80;;
19575;SDS011;41589;51.196;7.074;2023-02-15T11:35:05;1.90;;;1.63;;
19575;SDS011;41589;51.196;7.074;2023-02-15T11:45:58;1.80;;;1.70;;
19575;SDS011;41589;51.196;7.074;2023-02-15T11:51:01;1.80;;;1.70;;
19575;SDS011;41589;51.196;7.074;2023-02-15T11:56:02;2.00;;;1.90;;
19575;SDS011;41589;51.196;7.074;2023-02-15T12:01:08;1.87;;;1.77;;
19575;SDS011;41589;51.196;7.074;2023-02-15T12:06:18;1.60;;;1.50;;
19575;SDS011;41589;51.196;7.074;2023-02-15T12:11:37;2.07;;;1.97;;
19575;SDS011;41589;51.196;7.074;2023-02-15T12:16:40;1.80;;;1.70;;
19575;SDS011;41589;51.196;7.074;2023-02-15T12:21:48;2.23;;;1.73;;
19575;SDS011;41589;51.196;7.074;2023-02-15T12:27:03;3.60;;;3.40;;
19575;SDS011;41589;51.196;7.074;2023-02-15T12:32:08;2.13;;;2.03;;
19575;SDS011;41589;51.196;7.074;2023-02-15T12:37:17;9.00;;;8.60;;
19575;SDS011;41589;51.196;7.074;2023-02-15T12:42:21;4.20;;;4.00;;
19575;SDS011;41589;51.196;7.074;2023-02-15T12:47:23;1.93;;;1.83;;
19575;SDS011;41589;51.196;7.074;2023-02-15T12:52:26;2.57;;;2.47;;
19575;SDS011;41589;51.196;7.074;2023-02-15T12:57:30;1.90;;;1.80;;
19575;SDS011;41589;51.196;7.074;2023-02-15T13:02:44;2.10;;;2.00;;
19575;SDS011;41589;51.196;7.074;2023-02-15T13:07:49;1.80;;;1.70;;
19575;SDS011;41589;51.196;7.074;2023-02-15T13:12:53;2.57;;;2.00;;
19575;SDS011;41589;51.196;7.074;2023-02-15T13:17:55;1.77;;;1.70;;
19575;SDS011;41589;51.196;7.074;2023-02-15T13:22:58;2.10;;;2.00;;
19575;SDS011;41589;51.196;7.074;2023-02-15T13:28:02;1.80;;;1.70;;
19575;SDS011;41589;51.196;7.074;2023-02-15T13:33:11;2.30;;;1.90;;
19575;SDS011;41589;51.196;7.074;2023-02-15T13:38:21;1.73;;;1.70;;
19575;SDS011;41589;51.196;7.074;2023-02-15T13:43:47;2.00;;;1.90;;
19575;SDS011;41589;51.196;7.074;2023-02-15T13:59:57;1.87;;;1.77;;
19575;SDS011;41589;51.196;7.074;2023-02-15T14:05:26;1.83;;;1.77;;
19575;SDS011;41589;51.196;7.074;2023-02-15T14:10:53;1.87;;;1.77;;
19575;SDS011;41589;51.196;7.074;2023-02-15T14:21:39;2.00;;;1.90;;
19575;SDS011;41589;51.196;7.074;2023-02-15T14:32:25;1.80;;;1.70;;
19575;SDS011;41589;51.196;7.074;2023-02-15T14:37:35;1.63;;;1.57;;
19575;SDS011;41589;51.196;7.074;2023-02-15T14:42:57;2.00;;;1.90;;
19575;SDS011;41589;51.196;7.074;2023-02-15T14:48:12;5.00;;;4.70;;
19575;SDS011;41589;51.196;7.074;2023-02-15T14:58:29;3.83;;;3.63;;
19575;SDS011;41589;51.196;7.074;2023-02-15T15:03:29;3.10;;;2.90;;
19575;SDS011;41589;51.196;7.074;2023-02-15T15:08:34;2.17;;;2.07;;
19575;SDS011;41589;51.196;7.074;2023-02-15T15:13:38;1.97;;;1.87;;
19575;SDS011;41589;51.196;7.074;2023-02-15T15:18:51;1.77;;;1.67;;
19575;SDS011;41589;51.196;7.074;2023-02-15T15:23:52;2.20;;;2.10;;
19575;SDS011;41589;51.196;7.074;2023-02-15T15:28:53;2.00;;;1.90;;
19575;SDS011;41589;51.196;7.074;2023-02-15T15:45:31;2.20;;;2.10;;
19575;SDS011;41589;51.196;7.074;2023-02-15T15:50:31;2.30;;;2.20;;
19575;SDS011;41589;51.196;7.074;2023-02-15T15:55:32;2.20;;;2.10;;
19575;SDS011;41589;51.196;7.074;2023-02-15T16:00:44;2.10;;;2.00;;
19575;SDS011;41589;51.196;7.074;2023-02-15T16:05:58;1.93;;;1.83;;
19575;SDS011;41589;51.196;7.074;2023-02-15T16:11:01;2.20;;;2.10;;
19575;SDS011;41589;51.196;7.074;2023-02-15T16:16:11;2.30;;;2.20;;
19575;SDS011;41589;51.196;7.074;2023-02-15T16:21:16;2.10;;;2.00;;
19575;SDS011;41589;51.196;7.074;2023-02-15T16:31:40;1.90;;;1.80;;
19575;SDS011;41589;51.196;7.074;2023-02-15T16:36:40;2.10;;;2.00;;
19575;SDS011;41589;51.196;7.074;2023-02-15T16:41:40;2.23;;;2.13;;
19575;SDS011;41589;51.196;7.074;2023-02-15T16:46:51;2.10;;;2.00;;
19575;SDS011;41589;51.196;7.074;2023-02-15T16:52:00;2.27;;;2.17;;
19575;SDS011;41589;51.196;7.074;2023-02-15T16:57:05;2.17;;;2.07;;
19575;SDS011;41589;51.196;7.074;2023-02-15T17:02:19;2.27;;;2.07;;
19575;SDS011;41589;51.196;7.074;2023-02-15T17:07:24;2.03;;;1.93;;
19575;SDS011;41589;51.196;7.074;2023-02-15T17:12:43;2.17;;;2.07;;
19575;SDS011;41589;51.196;7.074;2023-02-15T17:17:56;2.23;;;2.13;;
19575;SDS011;41589;51.196;7.074;2023-02-15T17:22:59;7.40;;;6.97;;
19575;SDS011;41589;51.196;7.074;2023-02-15T17:28:00;3.40;;;3.20;;
19575;SDS011;41589;51.196;7.074;2023-02-15T17:33:02;3.80;;;3.60;;
19575;SDS011;41589;51.196;7.074;2023-02-15T17:38:04;12.37;;;11.67;;
19575;SDS011;41589;51.196;7.074;2023-02-15T17:43:05;4.57;;;4.37;;
19575;SDS011;41589;51.196;7.074;2023-02-15T17:48:06;8.73;;;8.23;;
19575;SDS011;41589;51.196;7.074;2023-02-15T17:53:16;3.77;;;3.57;;
19575;SDS011;41589;51.196;7.074;2023-02-15T17:58:18;7.13;;;6.67;;
19575;SDS011;41589;51.196;7.074;2023-02-15T18:03:19;7.80;;;7.30;;
19575;SDS011;41589;51.196;7.074;2023-02-15T18:08:39;3.23;;;3.03;;
19575;SDS011;41589;51.196;7.074;2023-02-15T18:13:57;2.90;;;2.80;;
19575;SDS011;41589;51.196;7.074;2023-02-15T18:19:03;2.60;;;2.50;;
19575;SDS011;41589;51.196;7.074;2023-02-15T18:24:04;2.50;;;2.40;;
19575;SDS011;41589;51.196;7.074;2023-02-15T18:29:05;2.60;;;2.50;;
19575;SDS011;41589;51.196;7.074;2023-02-15T18:34:05;2.20;;;2.10;;
19575;SDS011;41589;51.196;7.074;2023-02-15T18:39:29;2.50;;;2.40;;
19575;SDS011;41589;51.196;7.074;2023-02-15T18:44:33;2.23;;;2.13;;
19575;SDS011;41589;51.196;7.074;2023-02-15T18:49:34;2.50;;;2.40;;
19575;SDS011;41589;51.196;7.074;2023-02-15T18:54:34;2.50;;;2.40;;
19575;SDS011;41589;51.196;7.074;2023-02-15T18:59:34;2.37;;;2.27;;
19575;SDS011;41589;51.196;7.074;2023-02-15T19:04:35;2.10;;;2.00;;
19575;SDS011;41589;51.196;7.074;2023-02-15T19:09:43;2.27;;;2.17;;
19575;SDS011;41589;51.196;7.074;2023-02-15T19:14:47;2.53;;;2.43;;
19575;SDS011;41589;51.196;7.074;2023-02-15T19:19:48;2.53;;;2.43;;
19575;SDS011;41589;51.196;7.074;2023-02-15T19:24:50;2.50;;;2.40;;
19575;SDS011;41589;51.196;7.074;2023-02-15T19:29:51;2.30;;;2.20;;
19575;SDS011;41589;51.196;7.074;2023-02-15T19:34:53;2.50;;;2.40;;
19575;SDS011;41589;51.196;7.074;2023-02-15T19:39:53;2.37;;;2.27;;
19575;SDS011;41589;51.196;7.074;2023-02-15T19:44:55;3.30;;;3.10;;
19575;SDS011;41589;51.196;7.074;2023-02-15T19:49:55;3.20;;;3.00;;
19575;SDS011;41589;51.196;7.074;2023-02-15T19:55:00;3.03;;;2.80;;
19575;SDS011;41589;51.196;7.074;2023-02-15T20:00:00;2.47;;;2.37;;
19575;SDS011;41589;51.196;7.074;2023-02-15T20:05:04;3.97;;;3.77;;
19575;SDS011;41589;51.196;7.074;2023-02-15T20:10:12;3.37;;;3.17;;
19575;SDS011;41589;51.196;7.074;2023-02-15T20:15:22;3.47;;;3.27;;
19575;SDS011;41589;51.196;7.074;2023-02-15T20:20:31;5.30;;;4.90;;
19575;SDS011;41589;51.196;7.074;2023-02-15T20:25:37;2.90;;;2.70;;
19575;SDS011;41589;51.196;7.074;2023-02-15T20:30:38;3.40;;;3.20;;
19575;SDS011;41589;51.196;7.074;2023-02-15T20:35:38;3.13;;;2.93;;
19575;SDS011;41589;51.196;7.074;2023-02-15T20:40:39;3.43;;;3.23;;
19575;SDS011;41589;51.196;7.074;2023-02-15T20:46:00;3.97;;;3.77;;
19575;SDS011;41589;51.196;7.074;2023-02-15T20:51:01;2.90;;;2.80;;
19575;SDS011;41589;51.196;7.074;2023-02-15T20:56:01;3.90;;;3.70;;
19575;SDS011;41589;51.196;7.074;2023-02-15T21:01:04;3.27;;;3.07;;
19575;SDS011;41589;51.196;7.074;2023-02-15T21:06:09;3.43;;;3.23;;
19575;SDS011;41589;51.196;7.074;2023-02-15T21:11:19;3.00;;;2.80;;
19575;SDS011;41589;51.196;7.074;2023-02-15T21:16:21;3.40;;;3.20;;
19575;SDS011;41589;51.196;7.074;2023-02-15T21:21:21;4.07;;;3.87;;
19575;SDS011;41589;51.196;7.074;2023-02-15T21:26:22;4.67;;;4.37;;
19575;SDS011;41589;51.196;7.074;2023-02-15T21:31:23;2.93;;;2.80;;
19575;SDS011;41589;51.196;7.074;2023-02-15T21:36:24;3.40;;;3.20;;
19575;SDS011;41589;51.196;7.074;2023-02-15T21:41:26;5.10;;;4.80;;
19575;SDS011;41589;51.196;7.074;2023-02-15T21:46:44;3.53;;;3.33;;
19575;SDS011;41589;51.196;7.074;2023-02-15T21:52:03;3.00;;;2.90;;
19575;SDS011;41589;51.196;7.074;2023-02-15T21:57:13;2.90;;;2.80;;
19575;SDS011;41589;51.196;7.074;2023-02-15T22:02:25;8.63;;;8.13;;
19575;SDS011;41589;51.196;7.074;2023-02-15T22:07:28;3.60;;;3.40;;
19575;SDS011;41589;51.196;7.074;2023-02-15T22:12:28;3.20;;;3.10;;
19575;SDS011;41589;51.196;7.074;2023-02-15T22:17:29;4.00;;;3.80;;
19575;SDS011;41589;51.196;7.074;2023-02-15T22:22:29;6.37;;;6.07;;
19575;SDS011;41589;51.196;7.074;2023-02-15T22:27:33;10.23;;;9.57;;
19575;SDS011;41589;51.196;7.074;2023-02-15T22:32:40;11.23;;;10.43;;
19575;SDS011;41589;51.196;7.074;2023-02-15T22:37:40;10.80;;;10.03;;
19575;SDS011;41589;51.196;7.074;2023-02-15T22:42:41;12.20;;;11.30;;
19575;SDS011;41589;51.196;7.074;2023-02-15T22:47:44;22.63;;;20.73;;
19575;SDS011;41589;51.196;7.074;2023-02-15T22:52:47;7.57;;;7.10;;
19575;SDS011;41589;51.196;7.074;2023-02-15T22:57:48;3.33;;;3.13;;
19575;SDS011;41589;51.196;7.074;2023-02-15T23:02:54;3.60;;;3.40;;
19575;SDS011;41589;51.196;7.074;2023-02-15T23:07:55;2.97;;;2.77;;
19575;SDS011;41589;51.196;7.074;2023-02-15T23:12:57;3.20;;;3.03;;
19575;SDS011;41589;51.196;7.074;2023-02-15T23:18:19;2.90;;;2.80;;
19575;SDS011;41589;51.196;7.074;2023-02-15T23:23:35;2.90;;;2.80;;
19575;SDS011;41589;51.196;7.074;2023-02-15T23:28:37;2.70;;;2.60;;
19575;SDS011;41589;51.196;7.074;2023-02-15T23:33:37;2.77;;;2.67;;
19575;SDS011;41589;51.196;7.074;2023-02-15T23:38:38;2.77;;;2.67;;
19575;SDS011;41589;51.196;7.074;2023-02-15T23:43:39;2.90;;;2.80;;
19575;SDS011;41589;51.196;7.074;2023-02-15T23:48:41;2.93;;;2.83;;
19575;SDS011;41589;51.196;7.074;2023-02-15T23:53:42;2.87;;;2.77;;
19575;SDS011;41589;51.196;7.074;2023-02-15T23:58:43;2.77;;;2.67;;
